createdAt,value
2022-11-16T00:00:05.328Z,9.30
2022-11-16T00:02:33.109Z,9.43
2022-11-16T00:04:59.881Z,8.32
2022-11-16T00:07:26.671Z,9.20
2022-11-16T00:09:53.481Z,10.07
2022-11-16T00:12:20.194Z,8.50
2022-11-16T00:14:46.960Z,9.43
2022-11-16T00:17:13.720Z,9.95
2022-11-16T00:19:40.450Z,7.77
2022-11-16T00:22:07.220Z,9.07
2022-11-16T00:24:34.390Z,8.98
2022-11-16T00:27:01.139Z,8.70
2022-11-16T00:29:27.897Z,9.73
2022-11-16T00:31:55.448Z,8.83
2022-11-16T00:34:23.297Z,9.00
2022-11-16T00:36:50.460Z,9.13
2022-11-16T00:39:17.980Z,10.45
2022-11-16T00:41:44.913Z,10.00
2022-11-16T00:44:12.103Z,9.63
2022-11-16T00:46:39.080Z,9.23
2022-11-16T00:49:05.884Z,9.23
2022-11-16T00:51:33.939Z,9.55
2022-11-16T00:54:01.315Z,8.30
2022-11-16T00:56:28.257Z,8.73
2022-11-16T00:58:55.002Z,9.20
2022-11-16T01:01:21.912Z,9.25
2022-11-16T01:03:48.756Z,9.60
2022-11-16T01:06:16.008Z,9.32
2022-11-16T01:08:43.929Z,8.13
2022-11-16T01:11:32.566Z,9.60
2022-11-16T01:14:04.837Z,8.88
2022-11-16T01:16:31.698Z,9.07
2022-11-16T01:18:58.719Z,10.93
2022-11-16T01:21:25.515Z,9.80
2022-11-16T01:23:53.011Z,9.68
2022-11-16T01:26:19.932Z,8.93
2022-11-16T01:28:46.711Z,8.23
2022-11-16T01:31:13.749Z,8.73
2022-11-16T01:33:40.524Z,8.27
2022-11-16T01:36:14.399Z,8.98
2022-11-16T01:38:42.699Z,10.95
2022-11-16T01:41:13.359Z,8.60
2022-11-16T01:43:55.308Z,8.23
2022-11-16T01:46:22.630Z,8.20
2022-11-16T01:48:53.053Z,12.02
2022-11-16T01:51:20.093Z,8.35
2022-11-16T01:53:46.866Z,9.93
2022-11-16T01:56:13.836Z,9.80
2022-11-16T01:58:41.139Z,9.23
2022-11-16T02:01:08.236Z,12.55
2022-11-16T02:03:37.694Z,9.00
2022-11-16T02:06:16.145Z,9.93
2022-11-16T02:09:30.682Z,11.32
2022-11-16T02:12:06.514Z,12.60
2022-11-16T02:15:13.358Z,13.02
2022-11-16T02:17:43.602Z,10.68
2022-11-16T02:20:39.179Z,10.60
2022-11-16T02:23:30.871Z,9.50
2022-11-16T02:25:57.581Z,11.37
2022-11-16T02:28:38.766Z,8.20
2022-11-16T02:31:06.474Z,8.82
2022-11-16T02:33:40.837Z,9.18
2022-11-16T02:36:10.357Z,8.68
2022-11-16T02:38:39.502Z,8.93
2022-11-16T02:41:10.889Z,9.55
2022-11-16T02:44:00.793Z,8.27
2022-11-16T02:46:30.813Z,10.30
2022-11-16T02:48:59.127Z,9.15
2022-11-16T02:51:27.285Z,7.77
2022-11-16T02:54:08.872Z,8.93
2022-11-16T02:56:45.597Z,8.02
2022-11-16T02:59:17.379Z,8.55
2022-11-16T03:01:48.469Z,8.93
2022-11-16T03:04:20.656Z,8.87
2022-11-16T03:06:48.724Z,9.60
2022-11-16T03:09:19.698Z,8.07
2022-11-16T03:12:02.930Z,9.05
2022-11-16T03:14:41.559Z,9.82
2022-11-16T03:17:13.744Z,8.53
2022-11-16T03:19:55.760Z,9.43
2022-11-16T03:22:34.166Z,10.13
2022-11-16T03:25:01.131Z,8.57
2022-11-16T03:27:37.722Z,8.60
2022-11-16T03:30:09.465Z,9.17
2022-11-16T03:32:39.378Z,8.18
2022-11-16T03:35:27.206Z,8.93
2022-11-16T03:37:56.536Z,9.15
2022-11-16T03:40:24.797Z,7.38
2022-11-16T03:42:52.285Z,8.50
2022-11-16T03:45:19.475Z,8.20
2022-11-16T03:47:46.377Z,9.00
2022-11-16T03:50:13.316Z,8.45
2022-11-16T03:52:40.109Z,8.35
2022-11-16T03:55:07.162Z,8.10
2022-11-16T03:57:33.971Z,8.40
2022-11-16T04:00:00.788Z,8.63
2022-11-16T04:02:27.559Z,8.57
2022-11-16T04:05:12.970Z,8.43
2022-11-16T04:07:58.539Z,8.73
2022-11-16T04:10:44.323Z,6.97
2022-11-16T04:13:31.743Z,8.23
2022-11-16T04:16:16.889Z,8.18
2022-11-16T04:19:02.436Z,7.07
2022-11-16T04:21:51.356Z,6.83
2022-11-16T04:24:23.656Z,8.65
2022-11-16T04:27:12.497Z,7.97
2022-11-16T04:29:39.548Z,6.95
2022-11-16T04:32:24.798Z,8.63
2022-11-16T04:35:10.140Z,6.80
2022-11-16T04:37:48.976Z,7.70
2022-11-16T04:40:20.500Z,7.28
2022-11-16T04:42:52.004Z,8.07
2022-11-16T04:45:37.788Z,7.30
2022-11-16T04:48:05.158Z,7.50
2022-11-16T04:50:32.161Z,6.55
2022-11-16T04:52:59.265Z,8.25
2022-11-16T04:55:26.706Z,7.35
2022-11-16T04:57:53.711Z,7.28
2022-11-16T05:00:20.760Z,7.33
2022-11-16T05:02:47.456Z,7.10
2022-11-16T05:05:14.353Z,6.18
2022-11-16T05:07:41.404Z,7.30
2022-11-16T05:10:08.542Z,6.55
2022-11-16T05:12:35.580Z,7.80
2022-11-16T05:15:02.477Z,7.30
2022-11-16T05:17:29.345Z,6.78
2022-11-16T05:20:14.811Z,7.82
2022-11-16T05:22:41.612Z,6.88
2022-11-16T05:25:09.044Z,6.70
2022-11-16T05:27:36.416Z,7.65
2022-11-16T05:30:04.778Z,7.32
2022-11-16T05:32:31.847Z,8.00
2022-11-16T05:34:58.579Z,6.32
2022-11-16T05:37:26.805Z,7.43
2022-11-16T05:39:54.966Z,6.47
2022-11-16T05:42:21.763Z,7.13
2022-11-16T05:44:48.800Z,6.95
2022-11-16T05:47:15.586Z,7.38
2022-11-16T05:49:42.426Z,10.33
2022-11-16T05:52:09.190Z,7.35
2022-11-16T05:54:35.980Z,7.13
2022-11-16T05:57:02.712Z,7.97
2022-11-16T05:59:30.140Z,7.18
2022-11-16T06:01:57.840Z,6.37
2022-11-16T06:04:25.101Z,6.35
2022-11-16T06:06:52.004Z,7.45
2022-11-16T06:09:18.947Z,7.10
2022-11-16T06:11:45.695Z,8.00
2022-11-16T06:14:12.559Z,6.57
2022-11-16T06:16:39.343Z,6.60
2022-11-16T06:19:06.109Z,6.55
2022-11-16T06:21:33.146Z,6.35
2022-11-16T06:23:59.960Z,6.80
2022-11-16T06:26:26.711Z,6.57
2022-11-16T06:28:54.974Z,9.25
2022-11-16T06:31:21.959Z,7.47
2022-11-16T06:33:48.679Z,9.73
2022-11-16T06:36:15.457Z,12.82
2022-11-16T06:38:42.197Z,7.73
2022-11-16T06:41:09.031Z,7.35
2022-11-16T06:43:36.080Z,8.85
2022-11-16T06:46:02.897Z,7.35
2022-11-16T06:48:30.677Z,14.23
2022-11-16T06:50:57.577Z,6.67
2022-11-16T06:53:28.934Z,6.05
2022-11-16T06:56:00.458Z,8.77
2022-11-16T06:58:29.227Z,6.45
2022-11-16T07:00:56.070Z,8.10
2022-11-16T07:03:22.792Z,10.73
2022-11-16T07:05:50.049Z,6.38
2022-11-16T07:08:16.831Z,6.93
2022-11-16T07:10:43.503Z,7.03
2022-11-16T07:13:10.318Z,7.85
2022-11-16T07:15:37.081Z,8.63
2022-11-16T07:18:05.491Z,8.73
2022-11-16T07:20:32.765Z,8.98
2022-11-16T07:23:01.113Z,12.98
2022-11-16T07:25:27.943Z,10.27
2022-11-16T07:27:54.701Z,10.77
2022-11-16T07:30:21.447Z,7.50
2022-11-16T08:46:36.810Z,41.13
2022-11-16T08:49:03.778Z,50.38
2022-11-16T08:51:30.494Z,44.47
2022-11-16T08:53:58.181Z,47.33
2022-11-16T08:56:27.525Z,48.87
2022-11-16T08:58:58.480Z,45.47
2022-11-16T09:01:27.376Z,38.03
2022-11-16T09:03:54.369Z,47.08
2022-11-16T09:06:22.275Z,46.08
2022-11-16T09:08:49.503Z,51.20
2022-11-16T09:11:20.240Z,44.92
2022-11-16T09:13:48.591Z,41.75
2022-11-16T09:16:16.728Z,49.58
2022-11-16T09:18:45.622Z,46.08
2022-11-16T09:21:12.315Z,52.83
2022-11-16T09:23:39.045Z,42.25
2022-11-16T09:26:07.799Z,41.75
2022-11-16T09:28:34.852Z,47.92
2022-11-16T09:31:04.269Z,48.20
2022-11-16T09:33:31.502Z,45.90
2022-11-16T09:36:06.785Z,62.40
2022-11-16T09:39:13.904Z,47.30
2022-11-16T09:41:39.431Z,46.42
2022-11-16T09:44:09.516Z,51.38
2022-11-16T09:46:40.063Z,48.80
2022-11-16T09:49:23.265Z,50.38
2022-11-16T09:51:53.563Z,53.35
2022-11-16T09:54:24.929Z,50.55
2022-11-16T09:56:54.511Z,62.80
2022-11-16T09:59:32.219Z,48.10
2022-11-16T10:02:26.542Z,57.20
2022-11-16T10:05:08.376Z,49.28
2022-11-16T10:07:46.703Z,48.85
2022-11-16T10:10:37.761Z,65.40
2022-11-16T10:13:38.441Z,52.03
2022-11-16T10:16:19.828Z,54.33
2022-11-16T10:18:53.742Z,51.92
2022-11-16T10:21:30.952Z,52.10
2022-11-16T10:24:22.385Z,62.88
2022-11-16T10:27:27.760Z,56.23
2022-11-16T10:29:54.420Z,56.88
2022-11-16T10:32:28.901Z,50.00
2022-11-16T10:35:11.097Z,68.90
2022-11-16T10:37:50.159Z,50.17
2022-11-16T10:40:23.675Z,63.10
2022-11-16T10:43:01.085Z,52.10
2022-11-16T10:45:58.065Z,58.20
2022-11-16T10:48:30.976Z,54.85
2022-11-16T10:50:57.823Z,51.30
2022-11-16T10:53:32.036Z,52.67
2022-11-16T10:56:21.620Z,50.10
2022-11-16T10:59:01.304Z,46.47
2022-11-16T11:01:49.519Z,51.58
2022-11-16T11:04:28.508Z,48.55
2022-11-16T11:07:00.853Z,51.17
2022-11-16T11:09:35.953Z,50.75
2022-11-16T11:12:35.586Z,46.60
2022-11-16T11:15:11.368Z,50.15
2022-11-16T11:17:40.823Z,47.72
2022-11-16T11:20:27.932Z,45.00
2022-11-16T11:23:00.182Z,43.90
2022-11-16T11:25:36.948Z,45.58
2022-11-16T11:28:20.301Z,42.92
2022-11-16T11:31:07.457Z,48.88
2022-11-16T11:33:37.533Z,46.10
2022-11-16T11:36:04.575Z,46.58
2022-11-16T11:38:32.272Z,48.08
2022-11-16T11:41:05.180Z,47.58
2022-11-16T11:43:34.303Z,53.33
2022-11-16T11:46:09.781Z,42.90
2022-11-16T11:49:01.501Z,46.13
2022-11-16T11:51:33.906Z,50.10
2022-11-16T11:54:02.601Z,44.83
2022-11-16T11:56:31.902Z,46.05
2022-11-16T11:58:58.902Z,51.80
2022-11-16T12:01:44.371Z,46.60
2022-11-16T12:04:25.867Z,40.70
2022-11-16T12:06:59.686Z,41.90
2022-11-16T12:09:31.272Z,50.47
2022-11-16T12:12:16.625Z,46.13
2022-11-16T12:15:21.557Z,40.50
2022-11-16T12:18:06.147Z,41.85
2022-11-16T12:20:35.257Z,42.28
2022-11-16T12:23:20.136Z,39.10
2022-11-16T12:25:57.119Z,40.93
2022-11-16T12:28:51.059Z,39.13
2022-11-16T12:31:42.587Z,39.10
2022-11-16T12:34:38.322Z,41.70
2022-11-16T12:37:10.986Z,40.45
2022-11-16T12:40:22.834Z,41.60
2022-11-16T12:43:08.843Z,39.88
2022-11-16T12:45:57.767Z,37.72
2022-11-16T12:48:38.882Z,33.47
2022-11-16T12:51:14.415Z,38.22
2022-11-16T12:54:11.679Z,33.43
2022-11-16T12:56:53.009Z,29.38
2022-11-16T12:59:32.234Z,29.48
2022-11-16T13:02:17.439Z,23.40
2022-11-16T13:04:51.033Z,26.20
2022-11-16T13:07:23.390Z,27.93
2022-11-16T13:09:56.241Z,25.85
2022-11-16T13:12:23.619Z,25.20
2022-11-16T13:14:53.146Z,25.77
2022-11-16T13:17:26.883Z,25.17
2022-11-16T13:20:21.641Z,26.70
2022-11-16T13:22:58.202Z,22.50
2022-11-16T13:25:31.642Z,21.17
2022-11-16T13:28:20.098Z,26.35
2022-11-16T13:31:09.130Z,24.75
2022-11-16T13:33:42.313Z,23.67
2022-11-16T13:36:54.687Z,23.83
2022-11-16T13:39:50.327Z,22.92
2022-11-16T13:42:17.754Z,23.13
2022-11-16T13:44:50.324Z,26.98
2022-11-16T13:47:24.836Z,21.10
2022-11-16T13:50:00.414Z,21.38
2022-11-16T13:53:36.383Z,22.35
2022-11-16T13:55:36.178Z,24.52
2022-11-16T13:58:05.364Z,24.52
2022-11-16T14:00:37.044Z,20.60
2022-11-16T14:03:15.543Z,22.83
2022-11-16T14:05:42.360Z,25.08
2022-11-16T14:08:24.330Z,23.98
2022-11-16T14:10:50.983Z,22.33
2022-11-16T14:13:36.609Z,24.27
2022-11-16T14:16:21.682Z,24.30
2022-11-16T14:18:50.538Z,23.10
2022-11-16T14:21:35.185Z,21.77
2022-11-16T14:24:07.701Z,20.55
2022-11-16T14:26:43.492Z,23.80
2022-11-16T14:29:15.894Z,26.48
2022-11-16T14:31:57.040Z,23.30
2022-11-16T14:34:30.355Z,28.05
2022-11-16T14:36:58.788Z,25.35
2022-11-16T14:39:32.629Z,20.53
2022-11-16T14:42:03.484Z,24.58
2022-11-16T14:44:41.451Z,24.55
2022-11-16T14:47:36.031Z,22.83
2022-11-16T14:50:18.550Z,21.25
2022-11-16T14:52:51.947Z,27.40
2022-11-16T14:55:24.600Z,20.98
2022-11-16T14:58:26.777Z,20.55
2022-11-16T15:00:55.515Z,21.15
2022-11-16T15:03:26.043Z,20.38
2022-11-16T15:06:10.345Z,19.33
2022-11-16T15:08:42.482Z,20.92
2022-11-16T15:11:20.179Z,23.17
2022-11-16T15:13:47.391Z,19.63
2022-11-16T15:16:19.503Z,21.05
2022-11-16T15:18:59.532Z,21.90
2022-11-16T15:21:28.708Z,19.15
2022-11-16T15:26:44.123Z,21.95
2022-11-16T15:29:18.968Z,22.20
2022-11-16T15:31:45.930Z,20.50
2022-11-16T15:34:13.739Z,20.63
2022-11-16T15:36:41.318Z,21.88
2022-11-16T15:39:20.004Z,18.55
2022-11-16T15:41:47.144Z,16.35
2022-11-16T15:44:16.911Z,19.00
2022-11-16T15:46:46.050Z,16.15
2022-11-16T15:49:37.520Z,15.60
2022-11-16T15:52:05.587Z,17.73
2022-11-16T15:54:52.435Z,15.85
2022-11-16T15:57:20.757Z,17.47
2022-11-16T15:59:49.719Z,19.60
2022-11-16T16:02:18.895Z,21.08
2022-11-16T16:04:45.613Z,18.48
2022-11-16T16:07:13.638Z,21.17
2022-11-16T16:09:41.028Z,19.30
2022-11-16T16:12:24.709Z,20.00
2022-11-16T16:14:52.224Z,17.30
2022-11-16T16:17:26.749Z,18.30
2022-11-16T16:19:55.911Z,17.00
2022-11-16T16:22:34.296Z,15.33
2022-11-16T16:25:01.802Z,15.77
2022-11-16T16:27:30.271Z,16.15
2022-11-16T16:30:03.842Z,16.73
2022-11-16T16:32:34.237Z,14.73
2022-11-16T16:35:03.165Z,14.47
2022-11-16T16:37:31.560Z,16.98
2022-11-16T16:39:58.987Z,15.68
2022-11-16T16:42:26.163Z,12.57
2022-11-16T16:44:53.029Z,12.73
2022-11-16T16:47:22.520Z,13.30
2022-11-16T16:49:49.329Z,13.10
2022-11-16T16:52:16.545Z,14.80
2022-11-16T16:54:43.448Z,13.15
2022-11-16T16:57:17.151Z,12.80
2022-11-16T16:59:48.599Z,10.97
2022-11-16T17:02:16.147Z,11.52
2022-11-16T17:04:44.048Z,13.38
2022-11-16T17:07:10.746Z,13.68
2022-11-16T17:09:37.437Z,15.95
2022-11-16T17:12:04.426Z,19.47
2022-11-16T17:14:31.088Z,19.95
2022-11-16T17:16:57.826Z,22.35
2022-11-16T17:19:24.575Z,21.60
2022-11-16T17:21:52.117Z,22.70
2022-11-16T17:24:18.815Z,22.57
2022-11-16T17:26:48.342Z,26.77
2022-11-16T17:29:15.303Z,23.17
2022-11-16T17:31:44.074Z,23.42
2022-11-16T17:34:13.812Z,24.10
2022-11-16T17:36:41.927Z,22.50
2022-11-16T17:39:08.848Z,18.58
2022-11-16T17:41:35.524Z,26.27
2022-11-16T17:44:02.419Z,33.60
2022-11-16T17:46:29.279Z,22.60
2022-11-16T17:48:56.208Z,24.20
2022-11-16T17:51:24.829Z,20.52
2022-11-16T17:53:51.897Z,19.75
2022-11-16T17:56:21.136Z,20.17
2022-11-16T17:58:49.999Z,22.48
2022-11-16T18:01:16.742Z,18.83
2022-11-16T18:03:43.460Z,19.05
2022-11-16T18:06:15.833Z,18.83
2022-11-16T18:08:45.953Z,18.02
2022-11-16T18:11:13.866Z,16.33
2022-11-16T18:13:40.614Z,18.90
2022-11-16T18:16:21.059Z,17.77
2022-11-16T18:18:48.706Z,22.35
2022-11-16T18:21:20.730Z,27.17
2022-11-16T18:23:48.093Z,21.25
2022-11-16T18:26:16.655Z,21.90
2022-11-16T18:28:49.119Z,19.30
2022-11-16T18:31:18.458Z,17.05
2022-11-16T18:33:45.247Z,14.88
2022-11-16T18:36:12.641Z,13.75
2022-11-16T18:38:39.475Z,12.57
2022-11-16T18:41:12.019Z,13.05
2022-11-16T18:43:48.360Z,17.92
2022-11-16T18:46:15.299Z,19.23
2022-11-16T18:48:43.348Z,20.38
2022-11-16T18:51:11.164Z,17.07
2022-11-16T18:53:38.338Z,14.85
2022-11-16T18:56:05.721Z,14.82
2022-11-16T19:01:23.930Z,16.25
2022-11-16T19:03:51.833Z,14.27
2022-11-16T19:06:19.097Z,16.70
2022-11-16T19:08:53.767Z,19.27
2022-11-16T19:11:23.759Z,19.48
2022-11-16T19:14:03.835Z,22.85
2022-11-16T19:16:31.018Z,17.93
2022-11-16T19:18:57.642Z,22.42
2022-11-16T19:21:24.584Z,18.35
2022-11-16T19:23:53.677Z,20.10
2022-11-16T19:26:22.517Z,18.77
2022-11-16T19:28:50.175Z,19.67
2022-11-16T19:31:22.340Z,19.10
2022-11-16T19:33:53.988Z,18.83
2022-11-16T19:36:20.990Z,18.98
2022-11-16T19:38:48.489Z,17.20
2022-11-16T19:41:16.145Z,19.37
2022-11-16T19:43:42.929Z,17.48
2022-11-16T19:46:17.429Z,18.00
2022-11-16T19:48:45.828Z,7.85
2022-11-16T19:51:17.602Z,7.25
2022-11-16T19:53:44.495Z,6.97
2022-11-16T19:56:13.454Z,9.73
2022-11-16T19:58:40.689Z,7.93
2022-11-16T20:01:10.985Z,7.82
2022-11-16T20:03:41.780Z,8.65
2022-11-16T20:06:10.988Z,8.73
2022-11-16T20:08:40.425Z,9.32
2022-11-16T20:11:12.389Z,8.77
2022-11-16T20:13:39.064Z,11.10
2022-11-16T20:16:07.444Z,9.00
2022-11-16T20:18:34.191Z,8.50
2022-11-16T20:21:05.356Z,9.43
2022-11-16T20:23:36.076Z,11.90
2022-11-16T20:26:07.349Z,9.90
2022-11-16T20:28:38.536Z,9.93
2022-11-16T20:31:11.295Z,11.43
2022-11-16T20:33:38.315Z,11.00
2022-11-16T20:36:10.449Z,10.80
2022-11-16T20:38:38.412Z,10.07
2022-11-16T20:41:13.033Z,11.93
2022-11-16T20:43:40.258Z,12.33
2022-11-16T20:46:08.843Z,14.23
2022-11-16T20:48:36.322Z,12.07
2022-11-16T20:51:03.365Z,12.40
2022-11-16T20:53:30.210Z,10.43
2022-11-16T20:55:57.581Z,12.87
2022-11-16T20:58:24.871Z,11.52
2022-11-16T21:00:51.626Z,13.02
2022-11-16T21:03:18.317Z,17.23
2022-11-16T21:05:46.215Z,19.30
2022-11-16T21:08:12.942Z,19.27
2022-11-16T21:10:39.883Z,18.20
2022-11-16T21:13:26.154Z,19.67
2022-11-16T21:16:01.228Z,19.60
2022-11-16T21:18:30.909Z,17.25
2022-11-16T21:21:01.745Z,17.27
2022-11-16T21:23:29.955Z,19.17
2022-11-16T21:26:08.613Z,20.73
2022-11-16T21:28:35.217Z,18.48
2022-11-16T21:31:04.409Z,16.08
2022-11-16T21:33:31.800Z,19.53
2022-11-16T21:36:06.237Z,22.98
2022-11-16T21:38:34.051Z,16.83
2022-11-16T21:41:01.179Z,22.90
2022-11-16T21:43:28.340Z,19.95
2022-11-16T21:46:01.371Z,17.17
2022-11-16T21:48:28.086Z,21.35
2022-11-16T21:51:09.356Z,19.83
2022-11-16T21:53:36.518Z,19.05
2022-11-16T21:56:04.483Z,21.27
2022-11-16T21:58:31.390Z,22.27
2022-11-16T22:00:59.872Z,19.20
2022-11-16T22:03:28.787Z,22.75
2022-11-16T22:06:15.731Z,23.02
2022-11-16T22:08:42.609Z,25.40
2022-11-16T22:11:09.769Z,25.30
2022-11-16T22:13:37.587Z,24.00
2022-11-16T22:16:09.142Z,24.67
2022-11-16T22:18:36.133Z,25.52
2022-11-16T22:21:03.103Z,24.02
2022-11-16T22:23:30.066Z,28.37
2022-11-16T22:26:06.494Z,28.80
2022-11-16T22:28:34.853Z,25.25
2022-11-16T22:31:09.836Z,33.17
2022-11-16T22:33:37.162Z,27.67
2022-11-16T22:36:04.844Z,25.07
2022-11-16T22:38:31.511Z,25.88
2022-11-16T22:40:58.207Z,28.83
2022-11-16T22:43:26.977Z,28.95
2022-11-16T22:46:01.014Z,28.67
2022-11-16T22:48:31.439Z,27.70
2022-11-16T22:51:23.242Z,28.88
2022-11-16T22:53:54.326Z,29.40
2022-11-16T22:56:21.354Z,27.33
2022-11-16T22:58:47.987Z,28.15
2022-11-16T23:01:14.671Z,28.87
2022-11-16T23:03:41.537Z,26.77
2022-11-16T23:06:08.471Z,33.80
2022-11-16T23:08:35.643Z,24.80
2022-11-16T23:11:22.678Z,28.35
2022-11-16T23:14:08.483Z,27.57
2022-11-16T23:16:35.355Z,28.23
2022-11-16T23:19:02.130Z,28.13
2022-11-16T23:21:47.420Z,27.70
2022-11-16T23:24:33.756Z,28.35
2022-11-16T23:27:22.369Z,30.53
2022-11-16T23:29:49.367Z,32.08
2022-11-16T23:32:16.069Z,31.05
2022-11-16T23:34:42.702Z,30.95
2022-11-16T23:37:09.413Z,32.97
2022-11-16T23:39:36.090Z,28.50
2022-11-16T23:42:21.427Z,30.33
2022-11-16T23:44:48.150Z,29.73
2022-11-16T23:47:14.870Z,30.85
2022-11-16T23:49:41.763Z,28.33
2022-11-16T23:52:08.417Z,30.23
2022-11-16T23:54:35.111Z,31.38
2022-11-16T23:57:01.782Z,32.63
2022-11-16T23:59:28.429Z,29.80
